Time;durP1;ratioP1;P1;durP2;ratioP2;P2;SDS_P1;SDS_P2;PMS_P1;PMS_P2;Temp;Humidity;BMP_temperature;BMP_pressure;BME280_temperature;BME280_humidity;BME280_pressure;Samples;Min_cycle;Max_cycle;Signal;HPM_P1;HPM_P2
2024/03/10 00:08:00;;;;;;;40.87;12.47;;;;;;;6.80;55.03;100542.47;31134743;28;20488;-78
2024/03/10 00:23:02;;;;;;;32.27;12.40;;;;;;;6.99;56.40;100522.44;31134553;28;20049;-78
2024/03/10 00:38:04;;;;;;;32.70;11.07;;;;;;;6.88;53.05;100506.22;31137328;28;20057;-78
2024/03/10 00:53:06;;;;;;;28.87;10.40;;;;;;;6.46;52.64;100498.78;31029924;28;20065;-78
2024/03/10 01:08:09;;;;;;;20.53;8.60;;;;;;;6.37;53.50;100493.00;30991746;28;20422;-77
2024/03/10 01:23:11;;;;;;;22.83;8.97;;;;;;;5.96;53.31;100482.41;31002422;28;20415;-77
2024/03/10 01:38:13;;;;;;;16.53;8.33;;;;;;;5.99;54.37;100472.81;31014682;28;20124;-76
2024/03/10 01:53:15;;;;;;;20.60;8.57;;;;;;;6.00;53.49;100475.13;31016819;28;20114;-77
2024/03/10 02:08:18;;;;;;;18.70;8.57;;;;;;;5.94;54.13;100476.63;31035030;28;20057;-78
2024/03/10 02:23:21;;;;;;;17.80;9.40;;;;;;;6.01;55.47;100481.28;31008207;28;20062;-78
2024/03/10 02:53:46;;;;;;;25.87;10.60;;;;;;;5.76;60.88;100476.50;31196381;28;20062;-77
2024/03/10 03:08:48;;;;;;;26.47;11.33;;;;;;;5.95;65.96;100469.31;31115175;28;20144;-78
2024/03/10 03:23:52;;;;;;;38.20;16.30;;;;;;;5.77;70.48;100467.28;31099045;28;20121;-78
2024/03/10 03:38:55;;;;;;;43.90;18.83;;;;;;;5.76;72.83;100459.56;31137552;28;20057;-78
2024/03/10 03:53:57;;;;;;;46.30;17.53;;;;;;;5.65;76.60;100448.75;31138612;28;20419;-78
2024/03/10 04:08:59;;;;;;;28.20;13.03;;;;;;;5.47;84.28;100462.06;31125168;28;20797;-80
2024/03/10 04:24:01;;;;;;;32.83;13.10;;;;;;;5.33;96.93;100463.91;31187125;28;20060;-78
2024/03/10 04:39:03;;;;;;;31.77;14.13;;;;;;;5.33;100.00;100480.06;31131340;28;20708;-81
2024/03/10 04:54:05;;;;;;;25.03;12.37;;;;;;;5.13;100.00;100483.00;31043919;28;20050;-79
2024/03/10 05:09:08;;;;;;;28.63;13.80;;;;;;;5.40;100.00;100490.88;31019242;28;20042;-78
2024/03/10 05:24:10;;;;;;;33.17;14.60;;;;;;;5.98;100.00;100476.66;31020148;28;20049;-79
2024/03/10 05:39:14;;;;;;;41.27;16.93;;;;;;;6.89;100.00;100494.28;31022715;28;20050;-79
2024/03/10 05:54:16;;;;;;;33.93;14.07;;;;;;;7.77;100.00;100485.41;31133516;28;20496;-79
2024/03/10 06:09:18;;;;;;;36.20;14.27;;;;;;;9.03;88.99;100499.91;31176118;28;20442;-77
2024/03/10 06:39:41;;;;;;;32.33;14.07;;;;;;;12.12;60.58;100487.66;31156355;28;20133;-78
2024/03/10 06:54:43;;;;;;;24.13;11.87;;;;;;;13.11;54.24;100490.19;31025101;28;20058;-79
2024/03/10 07:09:45;;;;;;;30.87;13.77;;;;;;;13.95;47.66;100502.88;31004644;28;20062;-79
2024/03/10 07:24:47;;;;;;;30.00;14.33;;;;;;;14.64;44.51;100528.63;31029194;28;20184;-79
2024/03/10 07:39:49;;;;;;;29.20;14.30;;;;;;;15.00;43.79;100538.50;31026064;28;20519;-79
2024/03/10 07:55:00;;;;;;;33.93;14.03;;;;;;;16.08;40.82;100522.81;31021688;28;20049;-79
2024/03/10 08:10:08;;;;;;;35.20;15.07;;;;;;;17.37;37.62;100509.28;31013490;28;20061;-76
2024/03/10 08:25:10;;;;;;;25.50;11.10;;;;;;;18.15;34.91;100510.69;31012173;28;20046;-80
2024/03/10 08:40:13;;;;;;;22.65;8.32;;;;;;;18.20;34.45;100502.56;31014098;28;20062;-80
2024/03/10 08:55:16;;;;;;;16.47;9.30;;;;;;;19.24;32.96;100504.81;31036853;28;20062;-84
2024/03/10 09:10:18;;;;;;;18.88;9.02;;;;;;;19.12;32.67;100494.78;31078145;28;20054;-84
2024/03/10 09:25:21;;;;;;;17.33;8.32;;;;;;;20.02;31.03;100495.34;31046490;28;20397;-80
2024/03/10 09:40:25;;;;;;;11.20;6.17;;;;;;;19.40;31.69;100485.09;31024549;28;20062;-83
2024/03/10 09:55:27;;;;;;;12.00;6.88;;;;;;;19.69;30.54;100491.97;31060013;28;20456;-82
2024/03/10 10:10:29;;;;;;;15.45;6.82;;;;;;;17.61;32.06;100476.50;31104147;28;20088;-77
2024/03/10 10:25:35;;;;;;;12.57;5.28;;;;;;;18.42;31.16;100460.41;31122736;28;20050;-79
2024/03/10 10:40:45;;;;;;;14.30;4.43;;;;;;;19.99;28.76;100454.97;31113113;28;20064;-77
2024/03/10 10:55:47;;;;;;;18.38;3.75;;;;;;;20.03;27.67;100435.50;31060146;28;20479;-77
2024/03/10 11:10:50;;;;;;;8.75;3.03;;;;;;;20.00;27.87;100437.19;31047668;28;20054;-81
2024/03/10 11:25:52;;;;;;;8.75;2.88;;;;;;;19.62;27.85;100434.50;31066788;28;20050;-78
2024/03/10 11:41:00;;;;;;;8.07;3.00;;;;;;;19.87;27.69;100427.69;31086669;28;20053;-78
2024/03/10 11:56:03;;;;;;;4.20;2.78;;;;;;;19.99;28.18;100434.91;31062477;28;20053;-76
2024/03/10 12:11:06;;;;;;;7.93;3.80;;;;;;;18.14;29.37;100443.22;31031693;28;20368;-77
2024/03/10 12:26:11;;;;;;;7.00;3.10;;;;;;;16.44;31.45;100435.38;31019847;28;20047;-75
2024/03/10 12:41:14;;;;;;;10.32;3.80;;;;;;;15.36;32.64;100437.69;31059906;28;20058;-79
2024/03/10 12:56:16;;;;;;;6.03;3.40;;;;;;;15.02;33.42;100429.47;31130281;28;20057;-77
2024/03/10 13:11:23;;;;;;;6.37;3.10;;;;;;;15.12;33.31;100428.34;31127783;28;20057;-78
2024/03/10 13:26:29;;;;;;;5.43;3.53;;;;;;;14.62;34.04;100418.25;31111728;28;20145;-78
2024/03/10 13:41:32;;;;;;;8.43;4.07;;;;;;;14.47;34.65;100401.53;31126010;28;20084;-77
2024/03/10 13:56:34;;;;;;;13.57;4.97;;;;;;;14.37;34.78;100399.88;31137088;28;20069;-78
2024/03/10 14:11:36;;;;;;;16.10;5.27;;;;;;;14.37;34.60;100397.16;31115704;28;20049;-75
2024/03/10 14:26:39;;;;;;;10.37;3.90;;;;;;;14.18;34.86;100396.13;31120216;28;20082;-78
2024/03/10 14:41:41;;;;;;;13.83;4.70;;;;;;;13.91;35.41;100388.38;31119075;28;20487;-77
2024/03/10 14:56:43;;;;;;;20.67;4.77;;;;;;;13.43;36.17;100388.53;31107986;28;20100;-75
2024/03/10 15:11:45;;;;;;;13.53;4.77;;;;;;;13.56;35.94;100383.88;31119049;28;20088;-78
2024/03/10 15:26:48;;;;;;;10.63;4.07;;;;;;;13.32;36.04;100380.63;31128932;28;20458;-80
2024/03/10 15:41:51;;;;;;;10.67;5.17;;;;;;;12.85;36.21;100380.25;31139970;28;20137;-83
2024/03/10 15:57:04;;;;;;;10.77;4.63;;;;;;;12.54;36.57;100380.59;31176015;28;20407;-80
2024/03/10 16:12:08;;;;;;;11.30;4.30;;;;;;;12.24;36.86;100386.34;31127559;28;20054;-79
2024/03/10 16:27:11;;;;;;;7.93;3.90;;;;;;;11.82;37.22;100394.19;31139696;28;20046;-81
2024/03/10 16:42:13;;;;;;;5.77;3.93;;;;;;;11.68;37.77;100399.91;31118129;28;20062;-79
2024/03/10 16:57:15;;;;;;;11.93;5.57;;;;;;;11.41;38.05;100396.53;31023048;28;20046;-81
2024/03/10 17:12:18;;;;;;;22.23;11.17;;;;;;;11.42;38.18;100393.41;31080296;28;20117;-82
2024/03/10 17:27:20;;;;;;;20.17;9.30;;;;;;;11.64;38.92;100393.75;31015720;28;20728;-82
2024/03/10 17:42:23;;;;;;;16.73;8.57;;;;;;;11.59;39.21;100397.72;31061692;28;20049;-81
2024/03/10 17:57:26;;;;;;;19.30;7.87;;;;;;;11.58;39.50;100392.69;31149275;28;20046;-82
2024/03/10 18:12:28;;;;;;;18.53;7.47;;;;;;;11.59;40.16;100397.72;31158377;28;20077;-79
2024/03/10 18:27:30;;;;;;;19.70;10.53;;;;;;;11.39;41.03;100420.63;31181750;28;20100;-78
2024/03/10 18:42:33;;;;;;;25.73;11.70;;;;;;;10.74;41.90;100463.63;31092229;28;20524;-80
2024/03/10 18:57:37;;;;;;;18.57;8.87;;;;;;;10.96;41.90;100453.97;31101865;28;20390;-78
2024/03/10 19:12:46;;;;;;;20.10;8.63;;;;;;;10.71;42.76;100478.00;31003998;28;20082;-81
2024/03/10 19:27:48;;;;;;;19.87;9.23;;;;;;;10.50;43.66;100484.50;31027125;28;20089;-77
2024/03/10 19:42:53;;;;;;;21.33;10.73;;;;;;;10.08;44.34;100510.97;31072460;28;20065;-80
2024/03/10 19:57:56;;;;;;;26.83;9.37;;;;;;;8.85;45.89;100563.06;31162365;28;20508;-78
2024/03/10 20:12:59;;;;;;;17.20;7.90;;;;;;;7.55;49.63;100607.38;31139430;28;20053;-77
2024/03/10 20:28:02;;;;;;;18.13;7.87;;;;;;;6.87;53.98;100628.81;31128455;28;20499;-79
2024/03/10 20:43:04;;;;;;;11.90;6.13;;;;;;;6.59;60.29;100655.69;31117657;28;20062;-78
2024/03/10 20:58:06;;;;;;;13.27;5.37;;;;;;;6.44;68.81;100679.88;31021971;28;20046;-77
2024/03/10 21:13:09;;;;;;;15.73;7.43;;;;;;;6.03;78.62;100689.19;31024612;28;20484;-76
2024/03/10 21:28:12;;;;;;;12.50;4.97;;;;;;;5.92;85.16;100710.66;31012457;28;20527;-77
2024/03/10 21:43:15;;;;;;;8.53;4.90;;;;;;;5.97;86.68;100752.66;31043326;28;20046;-79
2024/03/10 21:58:27;;;;;;;10.83;4.67;;;;;;;5.85;91.93;100753.69;30993072;28;20057;-80
2024/03/10 22:13:30;;;;;;;9.67;4.47;;;;;;;5.52;99.66;100761.81;30995845;28;20133;-79
2024/03/10 22:28:33;;;;;;;13.10;4.83;;;;;;;5.39;100.00;100794.38;30998543;28;20061;-78
2024/03/10 22:43:35;;;;;;;8.23;5.00;;;;;;;5.32;100.00;100817.72;31041747;28;20092;-77
2024/03/10 22:58:38;;;;;;;13.27;6.03;;;;;;;5.11;100.00;100835.13;31138738;28;20136;-79
2024/03/10 23:13:40;;;;;;;7.97;4.50;;;;;;;4.71;100.00;100854.53;31127288;28;20053;-77
2024/03/10 23:28:43;;;;;;;7.83;4.53;;;;;;;4.65;97.04;100876.69;31125314;28;20054;-78
2024/03/10 23:43:45;;;;;;;7.13;3.93;;;;;;;4.55;89.85;100893.41;31148115;28;20081;-78
2024/03/10 23:58:48;;;;;;;5.07;2.97;;;;;;;4.30;86.92;100901.81;31136416;28;20046;-78
